Aldie, Virginia
Current Conditions -  °F | °C
As of 5:35 PM on Tuesday 21 Oct 2014 (Local Time) from KJYO Reporting Station
Heavy Rain Heavy Rain  
Wind Chill: 55°   Ceiling: 5000
Heat Index: 55°   Visibility: 2.5mi
Dew Point: 55°   Wind: 10mph
Humidity: 100%   Direction: 310°NW
Pressure: 29.88"   Gusts: 21mph
Location:  38.98°N, 77.64°W
Report Text: KJYO 212135Z AUTO 31009G18KT 2 1/2SM +RA SCT035 SCT044 OVC050 13/13 A2988 RMK AO2 LTG DSNT E P0019
Loading
Personal Weather Stations






























Interactive Weather Map
Tropical Storm Tracking
New forecast layout! Learn more

10-Day Weather Forecast

Advertisements
Track Severe Weather on mobile